createdAt,value
2019-02-14T00:00:53.770Z,103170.27
2019-02-14T00:03:23.469Z,103178.63
2019-02-14T00:05:53.163Z,103181.88
2019-02-14T00:08:22.877Z,103179.17
2019-02-14T00:10:52.595Z,103182.00
2019-02-14T00:13:22.298Z,103182.91
2019-02-14T00:15:52.004Z,103188.70
2019-02-14T00:18:21.715Z,103199.92
2019-02-14T00:20:51.394Z,103188.75
2019-02-14T00:23:21.064Z,103201.34
2019-02-14T00:25:50.770Z,103207.18
2019-02-14T00:28:20.457Z,103201.72
2019-02-14T00:30:50.185Z,103202.87
2019-02-14T00:33:19.863Z,103212.69
2019-02-14T00:35:49.577Z,103205.45
2019-02-14T00:38:19.283Z,103210.05
2019-02-14T00:40:49.041Z,103211.78
2019-02-14T00:43:18.734Z,103202.02
2019-02-14T00:45:48.442Z,103209.63
2019-02-14T00:48:18.112Z,103208.33
2019-02-14T00:50:50.446Z,103208.77
2019-02-14T00:53:20.948Z,103203.41
2019-02-14T00:55:53.504Z,103203.48
2019-02-14T00:58:23.198Z,103201.20
2019-02-14T01:00:55.909Z,103204.33
2019-02-14T01:03:25.634Z,103199.42
2019-02-14T01:05:58.307Z,103191.27
2019-02-14T01:08:27.974Z,103189.54
2019-02-14T01:10:58.809Z,103192.79
2019-02-14T01:13:28.494Z,103194.58
2019-02-14T01:15:58.211Z,103189.22
2019-02-14T01:18:27.920Z,103189.66
2019-02-14T01:20:57.612Z,103193.23
2019-02-14T01:23:27.333Z,103197.33
2019-02-14T01:25:57.090Z,103192.86
2019-02-14T01:28:26.788Z,103192.37
2019-02-14T01:30:56.475Z,103178.48
2019-02-14T01:33:26.192Z,103183.35
2019-02-14T01:35:55.875Z,103182.92
2019-02-14T01:38:25.647Z,103179.89
2019-02-14T01:40:55.330Z,103180.38
2019-02-14T01:43:25.039Z,103183.97
2019-02-14T01:45:54.727Z,103192.13
2019-02-14T01:48:24.436Z,103197.52
2019-02-14T01:50:54.110Z,103191.30
2019-02-14T01:53:23.782Z,103203.39
2019-02-14T01:55:53.526Z,103192.55
2019-02-14T01:58:23.228Z,103194.39
2019-02-14T02:00:52.978Z,103196.23
2019-02-14T02:03:22.690Z,103190.93
2019-02-14T02:05:52.325Z,103201.19
2019-02-14T02:08:22.049Z,103198.11
2019-02-14T02:10:51.817Z,103198.54
2019-02-14T02:13:21.511Z,103192.72
2019-02-14T02:15:51.642Z,103194.60
2019-02-14T02:18:21.494Z,103203.56
2019-02-14T02:20:51.193Z,103199.46
2019-02-14T02:23:20.908Z,103198.27
2019-02-14T02:25:50.606Z,103196.87
2019-02-14T02:28:20.302Z,103197.78
2019-02-14T02:30:50.018Z,103200.12
2019-02-14T02:33:19.706Z,103206.44
2019-02-14T02:35:49.394Z,103214.58
2019-02-14T02:38:19.116Z,103217.76
2019-02-14T02:40:48.788Z,103223.11
2019-02-14T02:43:18.485Z,103225.33
2019-02-14T02:45:48.166Z,103224.41
2019-02-14T02:48:17.897Z,103217.38
2019-02-14T02:50:47.569Z,103220.99
2019-02-14T02:53:17.337Z,103215.11
2019-02-14T02:55:47.045Z,103211.06
2019-02-14T02:58:16.773Z,103209.30
2019-02-14T03:00:46.471Z,103203.84
2019-02-14T03:03:16.186Z,103207.08
2019-02-14T03:05:45.875Z,103210.25
2019-02-14T03:08:15.619Z,103210.69
2019-02-14T03:10:45.599Z,103217.39
2019-02-14T03:13:15.911Z,103212.42
2019-02-14T03:15:45.829Z,103221.14
2019-02-14T03:18:15.638Z,103223.80
2019-02-14T03:20:45.693Z,103222.89
2019-02-14T03:23:15.647Z,103224.72
2019-02-14T03:25:46.318Z,103221.14
2019-02-14T03:28:16.346Z,103215.31
2019-02-14T03:30:46.062Z,103218.50
2019-02-14T03:33:15.750Z,103218.45
2019-02-14T03:35:45.469Z,103225.30
2019-02-14T03:38:15.156Z,103231.56
2019-02-14T03:40:44.919Z,103237.44
2019-02-14T03:43:14.618Z,103238.79
2019-02-14T03:45:44.397Z,103245.15
2019-02-14T03:48:14.111Z,103239.80
2019-02-14T03:50:43.801Z,103237.59
2019-02-14T03:53:13.495Z,103233.94
2019-02-14T03:55:43.185Z,103234.89
2019-02-14T03:58:12.911Z,103249.77
2019-02-14T04:00:42.611Z,103239.41
2019-02-14T04:03:12.326Z,103238.02
2019-02-14T04:05:42.048Z,103216.83
2019-02-14T04:08:11.747Z,103223.23
2019-02-14T04:10:41.470Z,103237.20
2019-02-14T04:13:11.154Z,103238.07
2019-02-14T04:15:40.846Z,103253.43
2019-02-14T04:18:10.518Z,103250.25
2019-02-14T04:20:40.284Z,103246.69
2019-02-14T04:23:09.973Z,103247.16
2019-02-14T04:25:39.706Z,103239.51
2019-02-14T04:28:09.405Z,103246.69
2019-02-14T04:30:39.152Z,103248.52
2019-02-14T04:33:08.863Z,103256.69
2019-02-14T04:35:38.570Z,103260.78
2019-02-14T04:38:08.285Z,103266.14
2019-02-14T04:40:38.018Z,103267.91
2019-02-14T04:43:07.672Z,103270.14
2019-02-14T04:45:37.364Z,103270.14
2019-02-14T04:48:07.050Z,103261.70
2019-02-14T04:50:36.759Z,103255.52
2019-02-14T04:53:08.885Z,103252.83
2019-02-14T04:55:39.159Z,103248.79
2019-02-14T04:58:08.925Z,103242.05
2019-02-14T05:00:38.673Z,103240.22
2019-02-14T05:03:08.376Z,103234.52
2019-02-14T05:05:38.117Z,103243.53
2019-02-14T05:08:07.836Z,103248.95
2019-02-14T05:10:37.528Z,103258.39
2019-02-14T05:13:07.223Z,103264.26
2019-02-14T05:15:36.932Z,103260.22
2019-02-14T05:18:07.433Z,103250.79
2019-02-14T05:20:37.144Z,103256.63
2019-02-14T05:23:06.850Z,103256.19
2019-02-14T05:25:36.551Z,103258.48
2019-02-14T05:28:06.257Z,103268.35
2019-02-14T05:30:35.950Z,103264.78
2019-02-14T05:33:08.027Z,103267.48
2019-02-14T05:35:37.743Z,103264.38
2019-02-14T05:38:07.466Z,103280.52
2019-02-14T05:40:37.126Z,103275.68
2019-02-14T05:43:06.841Z,103278.30
2019-02-14T05:45:36.556Z,103281.87
2019-02-14T05:48:06.255Z,103282.34
2019-02-14T05:50:35.976Z,103281.95
2019-02-14T05:53:05.690Z,103276.99
2019-02-14T05:55:35.410Z,103285.11
2019-02-14T05:58:05.115Z,103293.63
2019-02-14T06:00:34.879Z,103297.59
2019-02-14T06:03:04.624Z,103299.82
2019-02-14T06:05:34.403Z,103293.12
2019-02-14T06:08:04.116Z,103291.77
2019-02-14T06:10:33.802Z,103294.47
2019-02-14T06:13:03.688Z,103294.47
2019-02-14T06:15:33.379Z,103299.86
2019-02-14T06:18:03.101Z,103293.52
2019-02-14T06:20:32.823Z,103290.86
2019-02-14T06:23:02.571Z,103298.98
2019-02-14T06:25:32.296Z,103312.82
2019-02-14T06:28:02.015Z,103317.38
2019-02-14T06:30:31.704Z,103319.63
2019-02-14T06:33:27.522Z,103321.78
2019-02-14T06:35:57.202Z,103320.98
2019-02-14T06:38:26.960Z,103318.29
2019-02-14T06:40:56.622Z,103320.50
2019-02-14T06:43:26.340Z,103333.14
2019-02-14T06:45:56.028Z,103337.63
2019-02-14T06:48:25.833Z,103338.06
2019-02-14T06:50:55.533Z,103330.48
2019-02-14T06:53:25.356Z,103332.74
2019-02-14T06:55:55.064Z,103334.53
2019-02-14T06:58:24.782Z,103333.25
2019-02-14T07:00:54.508Z,103328.73
2019-02-14T07:03:24.249Z,103326.04
2019-02-14T07:05:53.946Z,103329.20
2019-02-14T07:08:23.681Z,103333.25
2019-02-14T07:10:53.379Z,103338.20
2019-02-14T07:13:23.104Z,103344.03
2019-02-14T07:15:52.849Z,103339.52
2019-02-14T07:18:22.580Z,103342.68
2019-02-14T07:20:52.284Z,103340.89
2019-02-14T07:23:22.070Z,103336.42
2019-02-14T07:25:51.759Z,103333.25
2019-02-14T07:28:21.477Z,103336.82
2019-02-14T07:30:51.151Z,103343.12
2019-02-14T07:33:20.909Z,103344.47
2019-02-14T07:35:50.619Z,103339.55
2019-02-14T07:38:20.449Z,103331.00
2019-02-14T07:40:50.326Z,103333.69
2019-02-14T07:43:20.047Z,103335.44
2019-02-14T07:45:49.765Z,103334.09
2019-02-14T07:48:19.456Z,103336.31
2019-02-14T07:50:49.167Z,103342.61
2019-02-14T07:53:20.412Z,103339.88
2019-02-14T07:55:50.191Z,103346.25
2019-02-14T07:58:19.852Z,103351.06
2019-02-14T08:00:49.573Z,103346.14
2019-02-14T08:03:19.274Z,103350.26
2019-02-14T08:05:49.015Z,103344.87
2019-02-14T08:08:18.729Z,103340.79
2019-02-14T08:10:48.440Z,103336.27
2019-02-14T08:13:18.149Z,103333.58
2019-02-14T08:15:47.881Z,103328.66
2019-02-14T08:18:17.590Z,103321.89
2019-02-14T08:20:47.308Z,103322.73
2019-02-14T08:23:17.030Z,103316.94
2019-02-14T08:25:46.793Z,103325.94
2019-02-14T08:28:16.435Z,103326.80
2019-02-14T08:30:46.269Z,103330.89
2019-02-14T08:33:15.999Z,103333.55
2019-02-14T08:35:48.411Z,103332.13
2019-02-14T08:38:18.129Z,103339.26
2019-02-14T08:40:47.844Z,103340.17
2019-02-14T08:43:27.311Z,103341.52
2019-02-14T08:45:56.988Z,103342.43
2019-02-14T08:48:26.706Z,103337.48
2019-02-14T08:50:56.429Z,103333.75
2019-02-14T08:53:26.093Z,103340.09
2019-02-14T08:55:58.691Z,103335.58
2019-02-14T08:58:28.363Z,103340.53
2019-02-14T09:00:58.112Z,103343.55
2019-02-14T09:03:27.808Z,103345.73
2019-02-14T09:05:57.576Z,103338.59
2019-02-14T09:08:27.248Z,103327.28
2019-02-14T09:10:56.947Z,103319.59
2019-02-14T09:13:26.640Z,103323.55
2019-02-14T09:15:58.368Z,103320.81
2019-02-14T09:18:28.052Z,103315.33
2019-02-14T09:20:57.788Z,103316.20
2019-02-14T09:23:27.475Z,103312.16
2019-02-14T09:25:57.178Z,103303.63
2019-02-14T09:28:26.870Z,103307.54
2019-02-14T09:30:56.573Z,103302.32
2019-02-14T09:33:26.289Z,103314.37
2019-02-14T09:35:57.644Z,103310.85
2019-02-14T09:38:27.365Z,103318.42
2019-02-14T09:40:57.063Z,103316.49
2019-02-14T09:43:29.767Z,103308.75
2019-02-14T09:45:58.197Z,103313.13
2019-02-14T09:48:27.897Z,103308.73
2019-02-14T09:50:57.624Z,103308.59
2019-02-14T09:53:27.342Z,103309.08
2019-02-14T09:55:57.083Z,103319.73
2019-02-14T09:58:26.835Z,103311.68
2019-02-14T10:00:56.523Z,103309.85
2019-02-14T10:03:26.286Z,103312.94
2019-02-14T10:05:56.026Z,103316.02
2019-02-14T10:08:25.776Z,103308.20
2019-02-14T10:10:55.595Z,103300.38
2019-02-14T10:13:25.274Z,103305.77
2019-02-14T10:15:55.149Z,103306.53
2019-02-14T10:18:24.848Z,103305.61
2019-02-14T10:20:54.562Z,103302.96
2019-02-14T10:23:24.276Z,103305.19
2019-02-14T10:25:53.989Z,103306.58
2019-02-14T10:28:23.820Z,103299.98
2019-02-14T10:30:53.545Z,103296.91
2019-02-14T10:33:23.264Z,103298.11
2019-02-14T10:35:52.954Z,103296.80
2019-02-14T10:38:22.863Z,103300.64
2019-02-14T10:40:52.597Z,103302.80
2019-02-14T10:43:22.313Z,103301.50
2019-02-14T10:45:52.024Z,103309.45
2019-02-14T10:48:21.720Z,103305.39
2019-02-14T10:50:51.565Z,103296.52
2019-02-14T10:53:21.278Z,103303.41
2019-02-14T10:55:50.987Z,103303.91
2019-02-14T10:58:20.682Z,103302.67
2019-02-14T11:00:50.366Z,103296.84
2019-02-14T11:03:20.184Z,103295.41
2019-02-14T11:05:49.846Z,103288.85
2019-02-14T11:08:19.890Z,103288.30
2019-02-14T11:10:49.704Z,103294.48
2019-02-14T11:13:27.539Z,103290.67
2019-02-14T11:15:57.238Z,103294.97
2019-02-14T11:18:27.943Z,103297.67
2019-02-14T11:20:57.612Z,103294.95
2019-02-14T11:23:27.426Z,103299.32
2019-02-14T11:25:57.379Z,103288.38
2019-02-14T11:28:27.095Z,103291.30
2019-02-14T11:30:56.788Z,103291.53
2019-02-14T11:33:34.868Z,103289.27
2019-02-14T11:36:04.648Z,103292.38
2019-02-14T11:38:40.466Z,103288.33
2019-02-14T11:41:05.748Z,103291.67
2019-02-14T11:43:35.627Z,103289.34
2019-02-14T11:46:05.414Z,103279.44
2019-02-14T11:48:35.125Z,103275.88
2019-02-14T11:51:04.884Z,103277.55
2019-02-14T11:53:34.565Z,103281.19
2019-02-14T11:56:04.279Z,103274.09
2019-02-14T11:58:33.976Z,103276.68
2019-02-14T12:01:03.646Z,103284.17
2019-02-14T12:03:33.366Z,103279.05
2019-02-14T12:06:03.124Z,103280.54
2019-02-14T12:08:32.841Z,103276.73
2019-02-14T12:11:02.600Z,103277.84
2019-02-14T12:13:32.353Z,103276.30
2019-02-14T12:16:02.044Z,103269.98
2019-02-14T12:18:31.707Z,103269.11
2019-02-14T12:21:01.479Z,103261.97
2019-02-14T12:23:31.178Z,103267.81
2019-02-14T12:26:00.936Z,103266.72
2019-02-14T12:28:30.652Z,103264.16
2019-02-14T12:31:00.347Z,103264.86
2019-02-14T12:33:30.090Z,103266.13
2019-02-14T12:35:59.779Z,103263.56
2019-02-14T12:38:29.545Z,103261.04
2019-02-14T12:40:59.306Z,103259.75
2019-02-14T12:43:28.987Z,103250.84
2019-02-14T12:45:58.696Z,103254.02
2019-02-14T12:48:28.413Z,103262.05
2019-02-14T12:50:58.139Z,103257.89
2019-02-14T12:53:27.900Z,103252.75
2019-02-14T12:55:57.606Z,103255.03
2019-02-14T12:58:30.129Z,103253.52
2019-02-14T13:00:59.975Z,103258.42
2019-02-14T13:03:31.674Z,103251.48
2019-02-14T13:06:01.329Z,103250.55
2019-02-14T13:08:31.030Z,103253.23
2019-02-14T13:11:07.937Z,103247.55
2019-02-14T13:13:37.635Z,103247.22
2019-02-14T13:16:07.424Z,103242.67
2019-02-14T13:18:37.191Z,103246.66
2019-02-14T13:21:06.878Z,103243.69
2019-02-14T13:23:39.463Z,103239.66
2019-02-14T13:26:09.674Z,103242.39
2019-02-14T13:28:39.425Z,103244.05
2019-02-14T13:31:10.768Z,103236.95
2019-02-14T13:33:40.484Z,103237.70
2019-02-14T13:36:10.197Z,103242.86
2019-02-14T13:38:39.884Z,103233.61
2019-02-14T13:41:13.885Z,103233.19
2019-02-14T13:43:47.093Z,103237.43
2019-02-14T13:46:16.827Z,103238.61
2019-02-14T13:48:46.532Z,103232.83
2019-02-14T13:51:16.318Z,103230.83
2019-02-14T13:53:48.795Z,103224.95
2019-02-14T13:56:18.501Z,103233.81
2019-02-14T13:58:48.212Z,103230.14
2019-02-14T14:01:18.957Z,103228.23
2019-02-14T14:03:48.642Z,103221.00
2019-02-14T14:06:18.378Z,103222.06
2019-02-14T14:08:48.047Z,103222.23
2019-02-14T14:11:17.801Z,103219.13
2019-02-14T14:13:47.455Z,103219.23
2019-02-14T14:16:18.396Z,103223.78
2019-02-14T14:18:48.098Z,103227.98
2019-02-14T14:21:18.633Z,103222.30
2019-02-14T14:23:51.224Z,103226.58
2019-02-14T14:26:21.050Z,103223.45
2019-02-14T14:28:50.718Z,103228.15
2019-02-14T14:31:20.470Z,103227.78
2019-02-14T14:33:50.291Z,103232.61
2019-02-14T14:36:20.072Z,103220.77
2019-02-14T14:38:49.762Z,103223.47
2019-02-14T14:41:19.464Z,103228.44
2019-02-14T14:43:50.868Z,103229.31
2019-02-14T14:46:22.264Z,103227.59
2019-02-14T14:48:51.905Z,103227.68
2019-02-14T14:51:21.626Z,103227.31
2019-02-14T14:53:51.296Z,103225.03
2019-02-14T14:56:21.045Z,103236.07
2019-02-14T14:58:50.717Z,103230.14
2019-02-14T15:01:20.440Z,103241.20
2019-02-14T15:03:52.132Z,103239.96
2019-02-14T15:06:21.576Z,103241.31
2019-02-14T15:08:51.298Z,103242.56
2019-02-14T15:11:20.948Z,103238.52
2019-02-14T15:13:50.663Z,103241.48
2019-02-14T15:16:20.366Z,103240.36
2019-02-14T15:18:51.075Z,103242.98
2019-02-14T15:21:20.758Z,103239.77
2019-02-14T15:23:50.455Z,103235.48
2019-02-14T15:26:20.151Z,103233.52
2019-02-14T15:28:49.867Z,103233.32
2019-02-14T15:31:19.565Z,103235.28
2019-02-14T15:33:49.265Z,103233.28
2019-02-14T15:36:19.012Z,103235.14
2019-02-14T15:38:48.955Z,103237.59
2019-02-14T15:41:18.649Z,103232.06
2019-02-14T15:43:48.356Z,103235.28
2019-02-14T15:46:18.062Z,103240.39
2019-02-14T15:48:47.766Z,103243.19
2019-02-14T15:51:20.053Z,103235.19
2019-02-14T15:53:49.847Z,103239.05
2019-02-14T15:56:19.528Z,103241.52
2019-02-14T15:58:49.326Z,103243.93
2019-02-14T16:01:24.987Z,103232.39
2019-02-14T16:03:54.696Z,103243.42
2019-02-14T16:06:26.040Z,103240.44
2019-02-14T16:08:55.803Z,103249.15
2019-02-14T16:11:25.501Z,103241.67
2019-02-14T16:13:57.106Z,103242.23
2019-02-14T16:16:26.872Z,103248.23
2019-02-14T16:18:56.572Z,103250.21
2019-02-14T16:21:27.775Z,103244.06
2019-02-14T16:23:58.332Z,103240.95
2019-02-14T16:26:27.986Z,103247.70
2019-02-14T16:29:01.471Z,103254.08
2019-02-14T16:31:30.692Z,103250.13
2019-02-14T16:34:01.069Z,103251.06
2019-02-14T16:36:32.471Z,103244.84
2019-02-14T16:39:02.162Z,103248.96
2019-02-14T16:41:31.849Z,103254.91
2019-02-14T16:44:01.557Z,103248.73
2019-02-14T16:46:32.790Z,103243.89
2019-02-14T16:49:02.793Z,103246.59
2019-02-14T16:51:32.450Z,103249.35
2019-02-14T16:54:02.761Z,103244.00
2019-02-14T16:56:32.695Z,103251.13
2019-02-14T16:59:03.680Z,103251.56
2019-02-14T17:01:33.984Z,103250.37
2019-02-14T17:04:03.693Z,103245.98
2019-02-14T17:06:34.462Z,103252.84
2019-02-14T17:09:05.265Z,103252.90
2019-02-14T17:11:37.059Z,103250.78
2019-02-14T17:14:08.379Z,103251.70
2019-02-14T17:16:38.079Z,103259.45
2019-02-14T17:19:07.825Z,103257.05
2019-02-14T17:21:37.580Z,103267.20
2019-02-14T17:24:07.277Z,103265.38
2019-02-14T17:26:36.997Z,103264.13
2019-02-14T17:29:06.713Z,103271.30
2019-02-14T17:31:36.407Z,103270.95
2019-02-14T17:34:06.076Z,103277.31
2019-02-14T17:36:35.853Z,103271.48
2019-02-14T17:39:06.929Z,103267.05
2019-02-14T17:41:36.835Z,103270.74
2019-02-14T17:44:06.740Z,103265.36
2019-02-14T17:46:36.457Z,103271.79
2019-02-14T17:49:06.236Z,103268.27
2019-02-14T17:51:35.939Z,103275.05
2019-02-14T17:54:05.614Z,103278.96
2019-02-14T17:56:35.335Z,103268.53
2019-02-14T17:59:05.047Z,103271.66
2019-02-14T18:01:34.759Z,103266.75
2019-02-14T18:04:04.457Z,103270.31
2019-02-14T18:06:34.147Z,103272.48
2019-02-14T18:09:04.587Z,103264.48
2019-02-14T18:11:34.293Z,103260.97
2019-02-14T18:14:04.041Z,103270.05
2019-02-14T18:16:33.762Z,103275.44
2019-02-14T18:19:04.289Z,103265.18
2019-02-14T18:21:34.015Z,103276.04
2019-02-14T18:24:04.118Z,103276.52
2019-02-14T18:26:33.836Z,103269.82
2019-02-14T18:29:03.751Z,103281.11
2019-02-14T18:31:33.488Z,103287.01
2019-02-14T18:34:03.196Z,103286.13
2019-02-14T18:36:32.920Z,103281.69
2019-02-14T18:39:02.740Z,103282.56
2019-02-14T18:41:32.458Z,103289.34
2019-02-14T18:44:02.151Z,103280.42
2019-02-14T18:46:31.876Z,103278.64
2019-02-14T18:49:02.240Z,103284.16
2019-02-14T18:51:34.659Z,103286.28
2019-02-14T18:54:04.350Z,103283.69
2019-02-14T18:56:34.053Z,103281.91
2019-02-14T18:59:03.767Z,103281.53
2019-02-14T19:01:33.463Z,103282.38
2019-02-14T19:04:03.167Z,103272.55
2019-02-14T19:06:32.884Z,103273.45
2019-02-14T19:09:02.615Z,103279.38
2019-02-14T19:11:38.305Z,103272.70
2019-02-14T19:14:08.063Z,103273.64
2019-02-14T19:16:37.815Z,103272.27
2019-02-14T19:19:07.525Z,103272.70
2019-02-14T19:21:37.194Z,103272.30
2019-02-14T19:24:06.908Z,103263.87
2019-02-14T19:26:37.576Z,103255.86
2019-02-14T19:29:07.288Z,103255.86
2019-02-14T19:31:36.988Z,103262.18
2019-02-14T19:34:06.747Z,103261.74
2019-02-14T19:36:36.508Z,103250.16
2019-02-14T19:39:06.385Z,103259.95
2019-02-14T19:41:36.064Z,103268.59
2019-02-14T19:44:05.792Z,103273.55
2019-02-14T19:46:35.499Z,103256.61
2019-02-14T19:49:05.210Z,103259.39
2019-02-14T19:51:37.920Z,103260.30
2019-02-14T19:54:07.619Z,103262.11
2019-02-14T19:56:37.335Z,103254.58
2019-02-14T19:59:06.976Z,103256.81
2019-02-14T20:01:36.828Z,103264.42
2019-02-14T20:04:06.622Z,103263.11
2019-02-14T20:06:36.320Z,103263.63
2019-02-14T20:09:06.551Z,103265.48
2019-02-14T20:11:37.367Z,103265.92
2019-02-14T20:14:07.436Z,103266.87
2019-02-14T20:16:37.127Z,103266.48
2019-02-14T20:19:06.809Z,103265.21
2019-02-14T20:21:36.640Z,103264.80
2019-02-14T20:24:06.412Z,103267.53
2019-02-14T20:26:36.058Z,103271.11
2019-02-14T20:29:05.777Z,103272.94
2019-02-14T20:31:35.466Z,103274.28
2019-02-14T20:34:05.161Z,103272.06
2019-02-14T20:36:34.871Z,103276.09
2019-02-14T20:39:05.318Z,103272.11
2019-02-14T20:41:35.109Z,103279.70
2019-02-14T20:44:04.809Z,103276.14
2019-02-14T20:46:34.562Z,103277.04
2019-02-14T20:49:04.260Z,103286.88
2019-02-14T20:51:38.502Z,103279.73
2019-02-14T20:54:05.354Z,103284.20
2019-02-14T20:56:35.068Z,103281.09
2019-02-14T20:59:04.840Z,103267.25
2019-02-14T21:01:34.536Z,103269.04
2019-02-14T21:04:04.242Z,103274.86
2019-02-14T21:06:34.041Z,103277.07
2019-02-14T21:09:04.472Z,103289.14
2019-02-14T21:11:34.185Z,103289.61
2019-02-14T21:14:03.871Z,103286.48
2019-02-14T21:16:33.607Z,103289.12
2019-02-14T21:19:03.281Z,103282.86
2019-02-14T21:21:33.041Z,103289.58
2019-02-14T21:24:02.732Z,103286.88
2019-02-14T21:26:32.436Z,103297.16
2019-02-14T21:29:02.134Z,103295.37
2019-02-14T21:31:31.865Z,103297.61
2019-02-14T21:34:01.570Z,103292.67
2019-02-14T21:36:31.289Z,103290.88
2019-02-14T21:39:01.113Z,103301.61
2019-02-14T21:41:30.870Z,103303.36
2019-02-14T21:44:00.538Z,103300.66
2019-02-14T21:46:30.255Z,103297.06
2019-02-14T21:49:06.028Z,103297.06
2019-02-14T21:51:35.825Z,103305.09
2019-02-14T21:54:05.491Z,103305.56
2019-02-14T21:56:35.195Z,103306.42
2019-02-14T21:59:04.855Z,103304.63
2019-02-14T22:01:34.584Z,103306.33
2019-02-14T22:04:04.354Z,103303.20
2019-02-14T22:06:34.049Z,103307.23
2019-02-14T22:09:04.772Z,103304.08
2019-02-14T22:11:35.251Z,103312.13
2019-02-14T22:14:13.989Z,103310.31
2019-02-14T22:16:43.705Z,103314.33
2019-02-14T22:19:13.400Z,103317.89
2019-02-14T22:21:43.270Z,103315.23
2019-02-14T22:24:13.014Z,103319.26
2019-02-14T22:26:42.894Z,103318.34
2019-02-14T22:29:12.584Z,103310.31
2019-02-14T22:31:42.362Z,103311.64
2019-02-14T22:34:12.002Z,103308.53
2019-02-14T22:36:41.736Z,103303.13
2019-02-14T22:39:11.413Z,103305.84
2019-02-14T22:41:42.872Z,103304.95
2019-02-14T22:44:12.503Z,103307.61
2019-02-14T22:46:42.184Z,103300.49
2019-02-14T22:49:11.894Z,103297.78
2019-02-14T22:51:41.578Z,103298.27
2019-02-14T22:54:11.274Z,103298.25
2019-02-14T22:56:41.128Z,103298.25
2019-02-14T22:59:10.828Z,103294.23
2019-02-14T23:01:41.448Z,103292.42
2019-02-14T23:04:11.154Z,103294.20
2019-02-14T23:06:40.842Z,103294.21
2019-02-14T23:09:10.933Z,103286.61
2019-02-14T23:11:40.643Z,103286.17
2019-02-14T23:14:10.337Z,103292.92
2019-02-14T23:16:40.022Z,103289.33
2019-02-14T23:19:09.733Z,103291.98
2019-02-14T23:21:39.396Z,103288.44
2019-02-14T23:24:09.113Z,103296.47
2019-02-14T23:26:38.792Z,103301.36
2019-02-14T23:29:08.531Z,103295.52
2019-02-14T23:31:38.257Z,103303.03
2019-02-14T23:34:07.983Z,103300.38
2019-02-14T23:36:37.694Z,103297.20
2019-02-14T23:39:07.563Z,103296.30
2019-02-14T23:41:37.256Z,103294.52
2019-02-14T23:44:06.960Z,103298.47
2019-02-14T23:46:36.632Z,103298.48
2019-02-14T23:49:06.410Z,103298.48
2019-02-14T23:51:36.048Z,103298.49
2019-02-14T23:54:05.736Z,103302.06
2019-02-14T23:56:35.412Z,103299.81
2019-02-14T23:59:05.174Z,103296.68
